createdAt,value
2023-05-25T00:01:03.179Z,99725.49
2023-05-25T00:03:30.780Z,99722.73
2023-05-25T00:05:58.113Z,99724.95
2023-05-25T00:08:25.362Z,99724.61
2023-05-25T00:10:52.380Z,99730.30
2023-05-25T00:13:19.402Z,99734.10
2023-05-25T00:15:48.703Z,99734.04
2023-05-25T00:18:15.257Z,99731.45
2023-05-25T00:20:44.023Z,99734.84
2023-05-25T00:23:10.721Z,99734.60
2023-05-25T00:25:39.907Z,99735.39
2023-05-25T00:28:07.117Z,99736.06
2023-05-25T00:30:33.721Z,99734.39
2023-05-25T00:33:01.655Z,99731.63
2023-05-25T00:35:28.620Z,99735.95
2023-05-25T00:37:55.440Z,99732.52
2023-05-25T00:40:23.663Z,99727.95
2023-05-25T00:42:51.877Z,99728.88
2023-05-25T00:45:18.725Z,99731.65
2023-05-25T00:47:46.313Z,99728.50
2023-05-25T00:50:14.424Z,99728.72
2023-05-25T00:52:41.430Z,99726.66
2023-05-25T00:55:08.592Z,99723.65
2023-05-25T00:57:37.216Z,99724.96
2023-05-25T01:00:10.348Z,99727.71
2023-05-25T01:02:38.582Z,99730.96
2023-05-25T01:05:06.170Z,99729.73
2023-05-25T01:07:34.963Z,99733.71
2023-05-25T01:10:04.576Z,99739.10
2023-05-25T01:12:35.254Z,99736.30
2023-05-25T01:15:04.847Z,99734.14
2023-05-25T01:17:32.576Z,99736.17
2023-05-25T01:20:09.619Z,99729.42
2023-05-25T01:22:45.353Z,99728.39
2023-05-25T01:25:13.714Z,99731.04
2023-05-25T01:27:46.623Z,99724.27
2023-05-25T01:30:15.022Z,99724.23
2023-05-25T01:32:42.915Z,99721.42
2023-05-25T01:35:09.431Z,99722.25
2023-05-25T01:37:37.279Z,99719.73
2023-05-25T01:40:07.971Z,99726.95
2023-05-25T01:42:37.744Z,99726.09
2023-05-25T01:45:06.259Z,99727.48
2023-05-25T01:47:37.828Z,99727.29
2023-05-25T01:51:01.116Z,99727.50
2023-05-25T01:53:42.166Z,99734.67
2023-05-25T01:56:12.596Z,99733.45
2023-05-25T01:58:44.154Z,99734.11
2023-05-25T02:01:13.386Z,99736.10
2023-05-25T02:03:40.942Z,99739.13
2023-05-25T02:06:08.672Z,99738.59
2023-05-25T02:08:35.777Z,99741.13
2023-05-25T02:11:02.822Z,99741.63
2023-05-25T02:13:29.968Z,99739.34
2023-05-25T02:15:56.743Z,99740.92
2023-05-25T02:18:26.120Z,99738.51
2023-05-25T02:20:54.229Z,99742.77
2023-05-25T02:23:21.127Z,99746.32
2023-05-25T02:25:47.937Z,99744.46
2023-05-25T02:28:15.625Z,99751.21
2023-05-25T02:30:42.333Z,99749.57
2023-05-25T02:33:09.069Z,99749.10
2023-05-25T02:35:48.483Z,99742.58
2023-05-25T02:38:16.996Z,99744.34
2023-05-25T02:40:47.056Z,99745.89
2023-05-25T02:43:13.997Z,99746.27
2023-05-25T02:45:40.686Z,99750.41
2023-05-25T02:48:07.375Z,99751.45
2023-05-25T02:50:34.583Z,99749.08
2023-05-25T02:53:03.590Z,99754.53
2023-05-25T02:55:30.076Z,99756.52
2023-05-25T02:57:57.580Z,99755.77
2023-05-25T03:00:47.746Z,99757.56
2023-05-25T03:03:15.705Z,99754.10
2023-05-25T03:05:43.369Z,99752.59
2023-05-25T03:08:11.717Z,99752.49
2023-05-25T03:10:38.516Z,99755.96
2023-05-25T03:13:07.590Z,99757.09
2023-05-25T03:15:35.350Z,99754.30
2023-05-25T03:18:02.374Z,99753.63
2023-05-25T03:20:36.422Z,99750.62
2023-05-25T03:23:03.083Z,99752.78
2023-05-25T03:25:30.929Z,99754.39
2023-05-25T03:27:57.938Z,99753.86
2023-05-25T03:30:24.684Z,99759.39
2023-05-25T03:32:52.295Z,99760.92
2023-05-25T03:35:19.720Z,99764.11
2023-05-25T03:37:46.349Z,99762.13
2023-05-25T03:40:13.172Z,99762.81
2023-05-25T03:42:40.667Z,99761.24
2023-05-25T03:45:08.846Z,99759.20
2023-05-25T03:47:36.532Z,99755.20
2023-05-25T03:50:05.361Z,99758.54
2023-05-25T03:52:33.072Z,99752.67
2023-05-25T03:55:01.289Z,99749.77
2023-05-25T03:57:28.350Z,99752.30
2023-05-25T03:59:55.522Z,99751.98
2023-05-25T04:02:22.559Z,99752.38
2023-05-25T04:04:51.338Z,99749.97
2023-05-25T04:07:19.531Z,99751.52
2023-05-25T04:09:46.504Z,99754.06
2023-05-25T04:12:13.233Z,99756.73
2023-05-25T04:14:41.915Z,99759.46
2023-05-25T04:17:08.818Z,99759.45
2023-05-25T04:19:35.668Z,99763.52
2023-05-25T04:22:02.743Z,99761.09
2023-05-25T04:24:30.007Z,99764.27
2023-05-25T04:26:56.644Z,99763.99
2023-05-25T04:29:23.490Z,99765.81
2023-05-25T04:32:08.868Z,99767.64
2023-05-25T04:34:52.863Z,99765.21
2023-05-25T04:37:28.023Z,99767.23
2023-05-25T04:39:57.826Z,99767.94
2023-05-25T04:42:25.136Z,99766.65
2023-05-25T04:44:56.892Z,99764.77
2023-05-25T04:47:24.373Z,99767.02
2023-05-25T04:49:50.836Z,99765.21
2023-05-25T04:52:17.540Z,99759.08
2023-05-25T04:54:46.223Z,99758.25
2023-05-25T04:57:15.823Z,99758.30
2023-05-25T04:59:42.707Z,99759.80
2023-05-25T05:02:09.212Z,99759.71
2023-05-25T05:04:39.527Z,99759.09
2023-05-25T05:07:08.672Z,99761.19
2023-05-25T05:09:36.208Z,99759.42
2023-05-25T05:12:03.530Z,99761.50
2023-05-25T05:14:35.918Z,99763.06
2023-05-25T05:17:02.849Z,99763.76
2023-05-25T05:19:32.544Z,99764.70
2023-05-25T05:21:59.354Z,99767.38
2023-05-25T05:24:26.844Z,99762.66
2023-05-25T05:26:57.384Z,99764.45
2023-05-25T05:29:34.329Z,99768.50
2023-05-25T05:32:01.454Z,99768.36
2023-05-25T05:34:29.948Z,99769.69
2023-05-25T05:36:58.799Z,99769.61
2023-05-25T05:39:27.151Z,99773.23
2023-05-25T05:41:54.333Z,99772.02
2023-05-25T05:44:21.779Z,99774.13
2023-05-25T05:46:48.727Z,99775.39
2023-05-25T05:49:15.758Z,99776.80
2023-05-25T05:51:45.444Z,99776.52
2023-05-25T05:54:12.422Z,99776.19
2023-05-25T05:56:38.969Z,99780.70
2023-05-25T05:59:06.302Z,99778.58
2023-05-25T06:01:33.068Z,99781.10
2023-05-25T06:04:01.960Z,99779.83
2023-05-25T06:06:28.865Z,99781.08
2023-05-25T06:08:57.858Z,99781.30
2023-05-25T06:11:25.425Z,99783.56
2023-05-25T06:13:51.989Z,99786.69
2023-05-25T06:16:19.097Z,99784.96
2023-05-25T06:18:46.196Z,99783.36
2023-05-25T06:21:13.105Z,99784.07
2023-05-25T06:23:40.350Z,99778.18
2023-05-25T06:26:08.136Z,99779.00
2023-05-25T06:28:35.966Z,99782.63
2023-05-25T06:31:03.016Z,99781.63
2023-05-25T06:33:31.177Z,99778.79
2023-05-25T06:36:00.129Z,99781.53
2023-05-25T06:40:55.481Z,99778.67
2023-05-25T06:43:22.934Z,99773.39
2023-05-25T06:46:00.462Z,99776.34
2023-05-25T06:48:28.064Z,99778.10
2023-05-25T06:50:55.438Z,99775.78
2023-05-25T06:53:22.792Z,99774.63
2023-05-25T06:55:50.191Z,99772.87
2023-05-25T06:58:17.603Z,99771.34
2023-05-25T07:00:46.625Z,99775.52
2023-05-25T07:03:14.462Z,99775.90
2023-05-25T07:05:41.899Z,99775.58
2023-05-25T07:08:09.302Z,99773.73
2023-05-25T07:10:36.801Z,99775.93
2023-05-25T07:13:04.157Z,99776.60
2023-05-25T07:15:31.520Z,99779.02
2023-05-25T07:17:58.990Z,99778.66
2023-05-25T07:20:27.589Z,99778.99
2023-05-25T07:22:55.035Z,99775.92
2023-05-25T07:25:22.521Z,99776.02
2023-05-25T07:27:50.480Z,99778.73
2023-05-25T07:30:18.005Z,99783.04
2023-05-25T07:32:45.562Z,99782.05
2023-05-25T07:35:12.964Z,99785.63
2023-05-25T07:37:40.862Z,99782.91
2023-05-25T07:40:08.793Z,99782.52
2023-05-25T07:42:36.380Z,99773.89
2023-05-25T07:45:04.086Z,99773.65
2023-05-25T07:47:31.576Z,99773.09
2023-05-25T07:49:59.189Z,99778.08
2023-05-25T07:52:26.705Z,99774.80
2023-05-25T07:54:54.157Z,99769.87
2023-05-25T07:57:21.654Z,99769.64
2023-05-25T07:59:49.463Z,99769.94
2023-05-25T08:02:17.026Z,99771.53
2023-05-25T08:04:44.729Z,99772.92
2023-05-25T08:07:12.246Z,99768.07
2023-05-25T08:09:39.728Z,99765.74
2023-05-25T08:12:30.624Z,99762.45
2023-05-25T08:14:54.775Z,99756.79
2023-05-25T08:17:22.493Z,99760.98
2023-05-25T08:19:50.201Z,99755.33
2023-05-25T08:22:17.663Z,99750.88
2023-05-25T08:24:45.131Z,99758.23
2023-05-25T08:27:13.940Z,99759.74
2023-05-25T08:29:41.449Z,99753.02
2023-05-25T08:32:08.943Z,99756.27
2023-05-25T08:34:36.483Z,99757.45
2023-05-25T08:37:04.124Z,99762.65
2023-05-25T08:39:34.796Z,99762.52
2023-05-25T08:42:04.779Z,99758.63
2023-05-25T08:44:32.330Z,99759.85
2023-05-25T08:46:59.807Z,99758.55
2023-05-25T08:49:27.764Z,99750.29
2023-05-25T08:51:55.317Z,99742.67
2023-05-25T08:54:34.889Z,99741.70
2023-05-25T08:57:15.250Z,99742.30
2023-05-25T09:00:01.570Z,99741.92
2023-05-25T09:03:04.283Z,99735.08
2023-05-25T09:05:31.711Z,99733.80
2023-05-25T09:07:59.124Z,99731.75
2023-05-25T09:10:27.848Z,99735.69
2023-05-25T09:12:55.410Z,99735.46
2023-05-25T09:15:22.796Z,99729.94
2023-05-25T09:17:50.884Z,99726.94
2023-05-25T09:20:18.817Z,99724.64
2023-05-25T09:22:47.904Z,99727.14
2023-05-25T09:25:17.521Z,99726.42
2023-05-25T09:27:45.009Z,99726.09
2023-05-25T09:30:12.521Z,99724.41
2023-05-25T09:32:39.902Z,99724.38
2023-05-25T09:35:08.388Z,99716.25
2023-05-25T09:37:37.301Z,99710.34
2023-05-25T09:40:08.432Z,99710.83
2023-05-25T09:42:36.155Z,99706.94
2023-05-25T09:45:04.464Z,99706.61
2023-05-25T09:47:31.913Z,99701.35
2023-05-25T09:50:00.308Z,99701.09
2023-05-25T09:52:27.719Z,99694.77
2023-05-25T09:54:56.443Z,99695.60
2023-05-25T09:57:23.890Z,99695.30
2023-05-25T09:59:51.318Z,99691.95
2023-05-25T10:02:18.815Z,99691.90
2023-05-25T10:04:46.523Z,99684.23
2023-05-25T10:07:14.040Z,99683.24
2023-05-25T10:09:41.841Z,99675.82
2023-05-25T10:12:09.281Z,99670.55
2023-05-25T10:14:37.909Z,99667.38
2023-05-25T10:17:09.466Z,99666.89
2023-05-25T10:19:49.992Z,99662.11
2023-05-25T10:22:36.321Z,99666.41
2023-05-25T10:25:13.986Z,99667.43
2023-05-25T10:27:43.690Z,99669.11
2023-05-25T10:30:11.542Z,99670.71
2023-05-25T10:32:39.379Z,99667.95
2023-05-25T10:35:07.525Z,99665.09
2023-05-25T10:37:35.484Z,99663.02
2023-05-25T10:40:03.736Z,99667.05
2023-05-25T10:42:31.506Z,99675.80
2023-05-25T10:44:59.009Z,99680.02
2023-05-25T10:47:26.510Z,99677.29
2023-05-25T10:49:58.333Z,99677.89
2023-05-25T10:52:31.008Z,99675.67
2023-05-25T10:55:02.150Z,99673.50
2023-05-25T10:57:29.806Z,99673.08
2023-05-25T11:00:06.551Z,99675.05
2023-05-25T11:03:01.688Z,99674.33
2023-05-25T11:05:34.235Z,99673.72
2023-05-25T11:08:03.125Z,99675.17
2023-05-25T11:10:53.965Z,99675.20
2023-05-25T11:13:40.952Z,99667.52
2023-05-25T11:16:15.396Z,99655.11
2023-05-25T11:18:43.945Z,99648.85
2023-05-25T11:21:35.028Z,99649.42
2023-05-25T11:24:08.286Z,99645.44
2023-05-25T11:26:35.863Z,99640.52
2023-05-25T11:29:14.065Z,99642.89
2023-05-25T11:31:43.652Z,99651.48
2023-05-25T11:34:12.118Z,99651.12
2023-05-25T11:36:39.773Z,99653.80
2023-05-25T11:39:14.218Z,99655.91
2023-05-25T11:41:55.694Z,99658.36
2023-05-25T11:44:28.574Z,99663.85
2023-05-25T11:47:01.622Z,99656.96
2023-05-25T11:49:29.336Z,99659.09
2023-05-25T11:51:57.255Z,99663.42
2023-05-25T11:54:28.702Z,99655.52
2023-05-25T11:57:00.183Z,99655.19
2023-05-25T11:59:29.622Z,99651.56
2023-05-25T12:02:02.960Z,99654.72
2023-05-25T12:04:32.925Z,99652.29
2023-05-25T12:07:07.299Z,99647.46
2023-05-25T12:09:35.758Z,99639.77
2023-05-25T12:12:03.666Z,99641.61
2023-05-25T12:14:39.735Z,99654.95
2023-05-25T12:17:08.728Z,99655.44
2023-05-25T12:19:44.506Z,99650.51
2023-05-25T12:22:19.435Z,99643.36
2023-05-25T12:24:49.761Z,99643.84
2023-05-25T12:27:21.094Z,99645.84
2023-05-25T12:29:48.733Z,99643.69
2023-05-25T12:32:16.253Z,99645.13
2023-05-25T12:34:43.703Z,99649.84
2023-05-25T12:37:20.916Z,99654.70
2023-05-25T12:39:48.434Z,99650.81
2023-05-25T12:42:16.873Z,99646.17
2023-05-25T12:44:46.769Z,99650.29
2023-05-25T12:47:23.478Z,99651.93
2023-05-25T12:49:52.519Z,99650.61
2023-05-25T12:52:32.265Z,99650.35
2023-05-25T12:55:01.067Z,99643.21
2023-05-25T12:57:37.726Z,99639.67
2023-05-25T13:00:06.596Z,99635.95
2023-05-25T13:02:33.983Z,99638.27
2023-05-25T13:05:01.478Z,99631.45
2023-05-25T13:07:29.887Z,99631.51
2023-05-25T13:09:57.406Z,99630.14
2023-05-25T13:12:25.099Z,99630.14
2023-05-25T13:14:52.507Z,99632.95
2023-05-25T13:17:20.046Z,99633.98
2023-05-25T13:19:47.496Z,99640.33
2023-05-25T13:22:14.898Z,99643.02
2023-05-25T13:24:42.221Z,99648.95
2023-05-25T13:27:09.546Z,99646.39
2023-05-25T13:29:36.917Z,99646.23
2023-05-25T13:32:04.474Z,99650.55
2023-05-25T13:34:32.066Z,99649.80
2023-05-25T13:37:01.748Z,99647.40
2023-05-25T13:39:29.197Z,99654.52
2023-05-25T13:41:56.890Z,99655.94
2023-05-25T13:44:24.315Z,99652.75
2023-05-25T13:46:51.948Z,99652.16
2023-05-25T13:49:19.878Z,99648.48
2023-05-25T13:51:48.020Z,99639.36
2023-05-25T13:54:15.615Z,99649.67
2023-05-25T13:56:43.082Z,99650.38
2023-05-25T13:59:11.002Z,99647.54
2023-05-25T14:01:38.577Z,99639.80
2023-05-25T14:04:06.126Z,99641.42
2023-05-25T14:06:35.070Z,99641.41
2023-05-25T14:09:02.616Z,99641.44
2023-05-25T14:11:30.036Z,99644.39
2023-05-25T14:13:58.922Z,99643.38
2023-05-25T14:16:26.432Z,99644.35
2023-05-25T14:18:53.920Z,99641.91
2023-05-25T14:21:21.547Z,99641.02
2023-05-25T14:23:49.100Z,99634.77
2023-05-25T14:26:16.463Z,99631.88
2023-05-25T14:28:43.838Z,99644.15
2023-05-25T14:31:13.274Z,99641.34
2023-05-25T14:33:42.984Z,99641.23
2023-05-25T14:36:11.564Z,99645.15
2023-05-25T14:38:38.931Z,99647.90
2023-05-25T14:41:06.343Z,99644.41
2023-05-25T14:43:35.065Z,99647.84
2023-05-25T14:46:02.499Z,99648.24
2023-05-25T14:48:30.036Z,99652.78
2023-05-25T14:50:59.357Z,99652.63
2023-05-25T14:53:26.812Z,99650.90
2023-05-25T14:55:54.201Z,99653.41
2023-05-25T14:58:21.746Z,99655.85
2023-05-25T15:00:49.264Z,99660.70
2023-05-25T15:03:16.910Z,99665.27
2023-05-25T15:05:44.710Z,99666.11
2023-05-25T15:08:12.394Z,99666.58
2023-05-25T15:10:39.949Z,99666.65
2023-05-25T15:13:07.433Z,99666.28
2023-05-25T15:15:34.924Z,99667.05
2023-05-25T15:18:04.026Z,99671.90
2023-05-25T15:20:32.641Z,99673.66
2023-05-25T15:23:00.080Z,99678.84
2023-05-25T15:27:58.191Z,99682.25
2023-05-25T15:30:27.948Z,99679.73
2023-05-25T15:32:55.589Z,99678.57
2023-05-25T15:35:35.961Z,99680.62
2023-05-25T15:38:08.510Z,99684.48
2023-05-25T15:40:37.349Z,99680.39
2023-05-25T15:43:05.068Z,99680.96
2023-05-25T15:45:32.530Z,99674.48
2023-05-25T15:48:00.322Z,99678.09
2023-05-25T15:50:27.842Z,99676.45
2023-05-25T15:52:56.083Z,99679.70
2023-05-25T15:55:23.844Z,99678.00
2023-05-25T15:57:51.256Z,99678.60
2023-05-25T16:00:19.267Z,99670.98
2023-05-25T16:02:46.846Z,99673.04
2023-05-25T16:05:14.505Z,99671.83
2023-05-25T16:07:41.871Z,99674.83
2023-05-25T16:10:09.878Z,99673.42
2023-05-25T16:12:37.424Z,99669.92
2023-05-25T16:15:06.010Z,99669.56
2023-05-25T16:17:33.656Z,99669.84
2023-05-25T16:20:01.090Z,99673.16
2023-05-25T16:22:28.415Z,99669.86
2023-05-25T16:24:55.817Z,99665.52
2023-05-25T16:27:23.230Z,99670.54
2023-05-25T16:29:50.915Z,99675.50
2023-05-25T16:32:18.393Z,99677.93
2023-05-25T16:34:46.475Z,99673.20
2023-05-25T16:37:13.831Z,99668.02
2023-05-25T16:39:41.205Z,99662.95
2023-05-25T16:42:08.528Z,99663.98
2023-05-25T16:44:35.878Z,99663.52
2023-05-25T16:47:03.317Z,99666.95
2023-05-25T16:49:30.732Z,99661.36
2023-05-25T16:51:59.250Z,99661.94
2023-05-25T16:54:26.646Z,99659.50
2023-05-25T16:56:54.038Z,99663.81
2023-05-25T16:59:21.415Z,99662.39
2023-05-25T17:01:48.997Z,99663.95
2023-05-25T17:04:16.458Z,99667.40
2023-05-25T17:06:43.953Z,99670.38
2023-05-25T17:09:12.475Z,99673.26
2023-05-25T17:11:39.885Z,99671.40
2023-05-25T17:14:08.260Z,99666.52
2023-05-25T17:16:35.783Z,99664.55
2023-05-25T17:19:03.278Z,99666.61
2023-05-25T17:21:30.960Z,99673.30
2023-05-25T17:24:00.874Z,99675.79
2023-05-25T17:26:28.525Z,99673.73
2023-05-25T17:28:57.962Z,99676.81
2023-05-25T17:31:28.103Z,99670.13
2023-05-25T17:33:55.738Z,99677.80
2023-05-25T17:36:23.471Z,99681.30
2023-05-25T17:38:51.009Z,99680.73
2023-05-25T17:41:18.465Z,99683.98
2023-05-25T17:43:46.429Z,99684.25
2023-05-25T17:46:13.983Z,99683.06
2023-05-25T17:48:41.450Z,99684.86
2023-05-25T17:51:08.774Z,99681.42
2023-05-25T17:53:36.446Z,99682.56
2023-05-25T17:56:04.994Z,99681.58
2023-05-25T17:58:32.432Z,99682.04
2023-05-25T18:01:00.035Z,99682.94
2023-05-25T18:03:28.093Z,99685.95
2023-05-25T18:05:55.679Z,99686.13
2023-05-25T18:08:23.289Z,99686.49
2023-05-25T18:10:53.823Z,99685.86
2023-05-25T18:13:22.047Z,99690.06
2023-05-25T18:15:49.788Z,99689.58
2023-05-25T18:18:20.660Z,99697.73
2023-05-25T18:20:48.154Z,99705.48
2023-05-25T18:23:15.863Z,99708.09
2023-05-25T18:25:44.148Z,99711.33
2023-05-25T18:28:15.286Z,99711.11
2023-05-25T18:30:43.051Z,99714.58
2023-05-25T18:33:10.853Z,99712.80
2023-05-25T18:35:38.640Z,99714.25
2023-05-25T18:38:09.289Z,99719.36
2023-05-25T18:40:36.680Z,99719.71
2023-05-25T18:43:04.934Z,99722.30
2023-05-25T18:45:32.383Z,99717.42
2023-05-25T18:48:07.529Z,99720.63
2023-05-25T18:50:35.733Z,99715.85
2023-05-25T18:53:07.650Z,99713.36
2023-05-25T18:55:35.260Z,99714.19
2023-05-25T18:59:01.684Z,99718.36
2023-05-25T19:01:29.386Z,99715.81
2023-05-25T19:03:58.585Z,99714.05
2023-05-25T19:06:27.567Z,99715.06
2023-05-25T19:08:55.674Z,99716.46
2023-05-25T19:11:23.289Z,99713.89
2023-05-25T19:13:50.897Z,99716.11
2023-05-25T19:16:18.645Z,99720.41
2023-05-25T19:18:47.130Z,99721.66
2023-05-25T19:21:14.763Z,99724.73
2023-05-25T19:23:42.416Z,99720.77
2023-05-25T19:26:09.895Z,99721.27
2023-05-25T19:28:37.350Z,99718.73
2023-05-25T19:31:05.074Z,99717.44
2023-05-25T19:33:33.009Z,99716.86
2023-05-25T19:36:01.781Z,99715.87
2023-05-25T19:38:40.372Z,99716.56
2023-05-25T19:41:09.557Z,99714.11
2023-05-25T19:43:38.076Z,99717.86
2023-05-25T19:46:06.557Z,99716.42
2023-05-25T19:48:34.352Z,99718.88
2023-05-25T19:51:02.728Z,99716.76
2023-05-25T19:53:31.604Z,99720.94
2023-05-25T19:55:59.235Z,99718.02
2023-05-25T19:58:26.711Z,99716.78
2023-05-25T20:00:54.660Z,99718.94
2023-05-25T20:03:22.188Z,99721.27
2023-05-25T20:05:50.047Z,99722.57
2023-05-25T20:08:17.513Z,99721.44
2023-05-25T20:10:45.311Z,99722.04
2023-05-25T20:13:12.802Z,99724.35
2023-05-25T20:15:40.327Z,99727.17
2023-05-25T20:18:07.998Z,99727.70
2023-05-25T20:20:35.918Z,99725.20
2023-05-25T20:23:03.504Z,99728.33
2023-05-25T20:25:30.935Z,99727.45
2023-05-25T20:27:58.470Z,99732.05
2023-05-25T20:30:25.938Z,99735.69
2023-05-25T20:32:53.304Z,99733.10
2023-05-25T20:35:20.823Z,99730.56
2023-05-25T20:37:48.728Z,99727.53
2023-05-25T20:40:16.103Z,99725.93
2023-05-25T20:42:43.558Z,99723.73
2023-05-25T20:45:10.993Z,99724.09
2023-05-25T20:47:42.833Z,99722.30
2023-05-25T20:50:11.195Z,99719.19
2023-05-25T20:52:38.747Z,99724.50
2023-05-25T20:55:06.589Z,99723.09
2023-05-25T20:57:34.122Z,99719.75
2023-05-25T21:00:01.650Z,99713.24
2023-05-25T21:02:29.346Z,99714.52
2023-05-25T21:04:57.045Z,99715.42
2023-05-25T21:07:25.973Z,99712.03
2023-05-25T21:09:55.171Z,99713.38
2023-05-25T21:12:22.592Z,99715.30
2023-05-25T21:14:50.138Z,99716.83
2023-05-25T21:17:19.905Z,99714.21
2023-05-25T21:19:49.161Z,99713.80
2023-05-25T21:22:16.638Z,99710.47
2023-05-25T21:24:44.038Z,99709.88
2023-05-25T21:27:12.122Z,99710.10
2023-05-25T21:29:39.550Z,99710.67
2023-05-25T21:32:07.002Z,99710.95
2023-05-25T21:34:34.470Z,99712.45
2023-05-25T21:37:01.880Z,99711.84
2023-05-25T21:39:29.519Z,99708.34
2023-05-25T21:41:57.180Z,99707.33
2023-05-25T21:44:24.670Z,99707.19
2023-05-25T21:46:52.243Z,99700.73
2023-05-25T21:49:19.890Z,99698.45
2023-05-25T21:51:47.284Z,99703.71
2023-05-25T21:54:14.944Z,99708.77
2023-05-25T21:56:42.513Z,99705.67
2023-05-25T21:59:09.912Z,99706.89
2023-05-25T22:01:37.324Z,99708.30
2023-05-25T22:04:04.957Z,99704.27
2023-05-25T22:06:33.004Z,99700.59
2023-05-25T22:09:00.456Z,99703.50
2023-05-25T22:11:27.902Z,99700.09
2023-05-25T22:13:55.571Z,99696.86
2023-05-25T22:16:22.956Z,99696.17
2023-05-25T22:18:51.185Z,99697.80
2023-05-25T22:21:19.320Z,99701.21
2023-05-25T22:23:46.692Z,99698.52
2023-05-25T22:26:14.755Z,99695.23
2023-05-25T22:28:42.109Z,99690.95
2023-05-25T22:31:09.605Z,99693.81
2023-05-25T22:33:37.348Z,99694.31
2023-05-25T22:36:04.787Z,99692.84
2023-05-25T22:38:32.241Z,99696.34
2023-05-25T22:40:59.853Z,99694.36
2023-05-25T22:43:27.246Z,99695.55
2023-05-25T22:45:54.617Z,99699.17
2023-05-25T22:48:22.165Z,99700.65
2023-05-25T22:50:49.539Z,99704.88
2023-05-25T22:53:17.002Z,99704.25
2023-05-25T22:55:47.205Z,99706.83
2023-05-25T22:58:14.863Z,99704.05
2023-05-25T23:00:42.372Z,99703.57
2023-05-25T23:03:09.920Z,99702.17
2023-05-25T23:05:37.996Z,99702.70
2023-05-25T23:08:05.418Z,99700.72
2023-05-25T23:10:32.886Z,99700.82
2023-05-25T23:13:00.594Z,99697.23
2023-05-25T23:15:28.665Z,99693.36
2023-05-25T23:17:56.137Z,99694.59
2023-05-25T23:20:23.590Z,99696.10
2023-05-25T23:22:51.145Z,99694.81
2023-05-25T23:25:18.699Z,99693.11
2023-05-25T23:27:46.149Z,99691.98
2023-05-25T23:30:13.685Z,99691.16
2023-05-25T23:32:41.287Z,99691.84
2023-05-25T23:35:09.259Z,99689.55
2023-05-25T23:37:36.988Z,99688.79
2023-05-25T23:40:06.277Z,99688.87
2023-05-25T23:42:38.297Z,99684.54
2023-05-25T23:45:08.187Z,99686.96
2023-05-25T23:47:36.267Z,99686.21
2023-05-25T23:50:03.836Z,99690.70
2023-05-25T23:52:32.716Z,99687.48
2023-05-25T23:55:00.151Z,99689.60
2023-05-25T23:57:27.678Z,99688.30
2023-05-25T23:59:56.266Z,99693.36
